sensor_id;sensor_type;location;lat;lon;timestamp;temperature;humidity
58339;DHT22;68636;52.704;6.536;2023-05-16T00:00:05;8.60;99.90
58339;DHT22;68636;52.704;6.536;2023-05-16T00:02:34;8.60;99.90
58339;DHT22;68636;52.704;6.536;2023-05-16T00:05:02;8.60;99.90
58339;DHT22;68636;52.704;6.536;2023-05-16T00:07:29;8.50;99.90
58339;DHT22;68636;52.704;6.536;2023-05-16T00:09:55;8.50;99.90
58339;DHT22;68636;52.704;6.536;2023-05-16T00:12:21;8.50;99.90
58339;DHT22;68636;52.704;6.536;2023-05-16T00:14:47;8.50;99.90
58339;DHT22;68636;52.704;6.536;2023-05-16T00:17:14;8.50;99.90
58339;DHT22;68636;52.704;6.536;2023-05-16T00:19:41;8.50;99.90
58339;DHT22;68636;52.704;6.536;2023-05-16T00:22:09;8.50;99.90
58339;DHT22;68636;52.704;6.536;2023-05-16T00:24:36;8.40;99.90
58339;DHT22;68636;52.704;6.536;2023-05-16T00:27:02;8.40;99.90
58339;DHT22;68636;52.704;6.536;2023-05-16T00:29:30;8.40;99.90
58339;DHT22;68636;52.704;6.536;2023-05-16T00:31:56;8.40;99.90
58339;DHT22;68636;52.704;6.536;2023-05-16T00:34:22;8.40;99.90
58339;DHT22;68636;52.704;6.536;2023-05-16T00:36:49;8.40;99.90
58339;DHT22;68636;52.704;6.536;2023-05-16T00:39:15;8.30;99.90
58339;DHT22;68636;52.704;6.536;2023-05-16T00:41:41;8.20;99.90
58339;DHT22;68636;52.704;6.536;2023-05-16T00:44:07;8.20;99.90
58339;DHT22;68636;52.704;6.536;2023-05-16T00:46:33;8.10;99.90
58339;DHT22;68636;52.704;6.536;2023-05-16T00:49:00;8.10;99.90
58339;DHT22;68636;52.704;6.536;2023-05-16T00:51:26;8.20;99.90
58339;DHT22;68636;52.704;6.536;2023-05-16T00:53:52;8.10;99.90
58339;DHT22;68636;52.704;6.536;2023-05-16T00:56:20;8.10;99.90
58339;DHT22;68636;52.704;6.536;2023-05-16T00:58:46;8.10;99.90
58339;DHT22;68636;52.704;6.536;2023-05-16T01:01:12;8.00;99.90
58339;DHT22;68636;52.704;6.536;2023-05-16T01:03:38;8.00;99.90
58339;DHT22;68636;52.704;6.536;2023-05-16T01:06:04;7.90;99.90
58339;DHT22;68636;52.704;6.536;2023-05-16T01:08:31;7.90;99.90
58339;DHT22;68636;52.704;6.536;2023-05-16T01:11:21;7.90;99.90
58339;DHT22;68636;52.704;6.536;2023-05-16T01:14:24;7.90;99.90
58339;DHT22;68636;52.704;6.536;2023-05-16T01:17:11;7.90;99.90
58339;DHT22;68636;52.704;6.536;2023-05-16T01:22:35;7.90;99.90
58339;DHT22;68636;52.704;6.536;2023-05-16T01:27:46;7.90;99.90
58339;DHT22;68636;52.704;6.536;2023-05-16T01:30:15;7.90;99.90
58339;DHT22;68636;52.704;6.536;2023-05-16T01:32:41;7.90;99.90
58339;DHT22;68636;52.704;6.536;2023-05-16T01:35:10;7.90;99.90
58339;DHT22;68636;52.704;6.536;2023-05-16T01:40:14;7.90;99.90
58339;DHT22;68636;52.704;6.536;2023-05-16T01:42:44;7.90;99.90
58339;DHT22;68636;52.704;6.536;2023-05-16T01:45:17;7.80;99.90
58339;DHT22;68636;52.704;6.536;2023-05-16T01:48:01;7.80;99.90
58339;DHT22;68636;52.704;6.536;2023-05-16T01:50:33;7.70;99.90
58339;DHT22;68636;52.704;6.536;2023-05-16T01:53:11;7.60;99.90
58339;DHT22;68636;52.704;6.536;2023-05-16T01:55:47;7.60;99.90
58339;DHT22;68636;52.704;6.536;2023-05-16T01:58:16;7.60;99.90
58339;DHT22;68636;52.704;6.536;2023-05-16T02:00:42;7.50;99.90
58339;DHT22;68636;52.704;6.536;2023-05-16T02:03:09;7.40;99.90
58339;DHT22;68636;52.704;6.536;2023-05-16T02:05:34;7.40;99.90
58339;DHT22;68636;52.704;6.536;2023-05-16T02:08:00;7.30;99.90
58339;DHT22;68636;52.704;6.536;2023-05-16T02:10:26;7.30;99.90
58339;DHT22;68636;52.704;6.536;2023-05-16T02:12:52;7.20;99.90
58339;DHT22;68636;52.704;6.536;2023-05-16T02:15:18;7.20;99.90
58339;DHT22;68636;52.704;6.536;2023-05-16T02:17:44;7.20;99.90
58339;DHT22;68636;52.704;6.536;2023-05-16T02:20:11;7.10;99.90
58339;DHT22;68636;52.704;6.536;2023-05-16T02:22:38;7.10;99.90
58339;DHT22;68636;52.704;6.536;2023-05-16T02:25:04;7.10;99.90
58339;DHT22;68636;52.704;6.536;2023-05-16T02:27:30;7.00;99.90
58339;DHT22;68636;52.704;6.536;2023-05-16T02:29:56;7.00;99.90
58339;DHT22;68636;52.704;6.536;2023-05-16T02:32:22;7.00;99.90
58339;DHT22;68636;52.704;6.536;2023-05-16T02:34:48;7.00;99.90
58339;DHT22;68636;52.704;6.536;2023-05-16T02:37:14;6.90;99.90
58339;DHT22;68636;52.704;6.536;2023-05-16T02:39:40;6.90;99.90
58339;DHT22;68636;52.704;6.536;2023-05-16T02:42:06;6.90;99.90
58339;DHT22;68636;52.704;6.536;2023-05-16T02:44:32;6.80;99.90
58339;DHT22;68636;52.704;6.536;2023-05-16T02:46:58;6.80;99.90
58339;DHT22;68636;52.704;6.536;2023-05-16T02:49:24;6.80;99.90
58339;DHT22;68636;52.704;6.536;2023-05-16T02:51:50;6.80;99.90
58339;DHT22;68636;52.704;6.536;2023-05-16T02:54:16;6.80;99.90
58339;DHT22;68636;52.704;6.536;2023-05-16T02:56:42;6.80;99.90
58339;DHT22;68636;52.704;6.536;2023-05-16T02:59:10;6.80;99.90
58339;DHT22;68636;52.704;6.536;2023-05-16T03:01:36;6.70;99.90
58339;DHT22;68636;52.704;6.536;2023-05-16T03:04:01;6.70;99.90
58339;DHT22;68636;52.704;6.536;2023-05-16T03:06:27;6.70;99.90
58339;DHT22;68636;52.704;6.536;2023-05-16T03:08:54;6.60;99.90
58339;DHT22;68636;52.704;6.536;2023-05-16T03:11:20;6.60;99.90
58339;DHT22;68636;52.704;6.536;2023-05-16T03:13:47;6.70;99.90
58339;DHT22;68636;52.704;6.536;2023-05-16T03:16:13;6.60;99.90
58339;DHT22;68636;52.704;6.536;2023-05-16T03:18:40;6.60;99.90
58339;DHT22;68636;52.704;6.536;2023-05-16T03:21:06;6.60;99.90
58339;DHT22;68636;52.704;6.536;2023-05-16T03:23:31;6.60;99.90
58339;DHT22;68636;52.704;6.536;2023-05-16T03:25:57;6.60;99.90
58339;DHT22;68636;52.704;6.536;2023-05-16T03:28:23;6.50;99.90
58339;DHT22;68636;52.704;6.536;2023-05-16T03:30:49;6.50;99.90
58339;DHT22;68636;52.704;6.536;2023-05-16T03:33:15;6.50;99.90
58339;DHT22;68636;52.704;6.536;2023-05-16T03:35:41;6.50;99.90
58339;DHT22;68636;52.704;6.536;2023-05-16T03:38:08;6.50;99.90
58339;DHT22;68636;52.704;6.536;2023-05-16T03:40:34;6.50;99.90
58339;DHT22;68636;52.704;6.536;2023-05-16T03:43:00;6.50;99.90
58339;DHT22;68636;52.704;6.536;2023-05-16T03:45:26;6.50;99.90
58339;DHT22;68636;52.704;6.536;2023-05-16T03:47:51;6.60;99.90
58339;DHT22;68636;52.704;6.536;2023-05-16T03:50:17;6.60;99.90
58339;DHT22;68636;52.704;6.536;2023-05-16T03:52:43;6.50;99.90
58339;DHT22;68636;52.704;6.536;2023-05-16T03:55:09;6.60;99.90
58339;DHT22;68636;52.704;6.536;2023-05-16T03:57:36;6.60;99.90
58339;DHT22;68636;52.704;6.536;2023-05-16T04:00:03;6.60;99.90
58339;DHT22;68636;52.704;6.536;2023-05-16T04:02:32;6.60;99.90
58339;DHT22;68636;52.704;6.536;2023-05-16T04:04:58;6.60;99.90
58339;DHT22;68636;52.704;6.536;2023-05-16T04:07:23;6.60;99.90
58339;DHT22;68636;52.704;6.536;2023-05-16T04:09:50;6.60;99.90
58339;DHT22;68636;52.704;6.536;2023-05-16T04:12:16;6.70;99.90
58339;DHT22;68636;52.704;6.536;2023-05-16T04:14:42;6.60;99.90
58339;DHT22;68636;52.704;6.536;2023-05-16T04:17:08;6.60;99.90
58339;DHT22;68636;52.704;6.536;2023-05-16T04:19:35;6.70;99.90
58339;DHT22;68636;52.704;6.536;2023-05-16T04:22:01;6.70;99.90
58339;DHT22;68636;52.704;6.536;2023-05-16T04:24:26;6.70;99.90
58339;DHT22;68636;52.704;6.536;2023-05-16T04:26:53;6.80;99.90
58339;DHT22;68636;52.704;6.536;2023-05-16T04:29:20;6.80;99.90
58339;DHT22;68636;52.704;6.536;2023-05-16T04:31:46;6.90;99.90
58339;DHT22;68636;52.704;6.536;2023-05-16T04:34:12;6.90;99.90
58339;DHT22;68636;52.704;6.536;2023-05-16T04:36:40;7.00;99.90
58339;DHT22;68636;52.704;6.536;2023-05-16T04:39:06;7.00;99.90
58339;DHT22;68636;52.704;6.536;2023-05-16T04:41:32;7.10;99.90
58339;DHT22;68636;52.704;6.536;2023-05-16T04:44:02;7.20;99.90
58339;DHT22;68636;52.704;6.536;2023-05-16T04:46:30;7.30;99.90
58339;DHT22;68636;52.704;6.536;2023-05-16T04:48:56;7.40;99.90
58339;DHT22;68636;52.704;6.536;2023-05-16T04:51:22;7.40;99.90
58339;DHT22;68636;52.704;6.536;2023-05-16T04:53:48;7.40;99.90
58339;DHT22;68636;52.704;6.536;2023-05-16T04:56:14;7.50;99.90
58339;DHT22;68636;52.704;6.536;2023-05-16T04:58:39;7.60;99.90
58339;DHT22;68636;52.704;6.536;2023-05-16T05:01:05;7.60;99.90
58339;DHT22;68636;52.704;6.536;2023-05-16T05:03:31;7.70;99.90
58339;DHT22;68636;52.704;6.536;2023-05-16T05:05:57;7.70;99.90
58339;DHT22;68636;52.704;6.536;2023-05-16T05:08:23;7.80;99.90
58339;DHT22;68636;52.704;6.536;2023-05-16T05:10:48;7.90;99.90
58339;DHT22;68636;52.704;6.536;2023-05-16T05:13:14;7.90;99.90
58339;DHT22;68636;52.704;6.536;2023-05-16T05:15:40;8.00;99.90
58339;DHT22;68636;52.704;6.536;2023-05-16T05:18:05;8.00;99.90
58339;DHT22;68636;52.704;6.536;2023-05-16T05:20:31;8.10;99.90
58339;DHT22;68636;52.704;6.536;2023-05-16T05:22:57;8.10;99.90
58339;DHT22;68636;52.704;6.536;2023-05-16T05:25:23;8.20;99.90
58339;DHT22;68636;52.704;6.536;2023-05-16T05:27:48;8.30;99.90
58339;DHT22;68636;52.704;6.536;2023-05-16T05:30:14;8.40;99.90
58339;DHT22;68636;52.704;6.536;2023-05-16T05:32:40;8.40;99.90
58339;DHT22;68636;52.704;6.536;2023-05-16T05:35:06;8.50;99.90
58339;DHT22;68636;52.704;6.536;2023-05-16T05:37:32;8.60;99.90
58339;DHT22;68636;52.704;6.536;2023-05-16T05:39:58;8.70;99.90
58339;DHT22;68636;52.704;6.536;2023-05-16T05:42:24;8.70;99.90
58339;DHT22;68636;52.704;6.536;2023-05-16T05:44:49;8.80;99.90
58339;DHT22;68636;52.704;6.536;2023-05-16T05:47:15;8.80;99.90
58339;DHT22;68636;52.704;6.536;2023-05-16T05:49:41;8.80;99.90
58339;DHT22;68636;52.704;6.536;2023-05-16T05:52:07;8.90;99.90
58339;DHT22;68636;52.704;6.536;2023-05-16T05:54:33;9.00;99.90
58339;DHT22;68636;52.704;6.536;2023-05-16T05:56:59;9.00;99.90
58339;DHT22;68636;52.704;6.536;2023-05-16T05:59:25;9.10;99.90
58339;DHT22;68636;52.704;6.536;2023-05-16T06:01:52;9.20;99.90
58339;DHT22;68636;52.704;6.536;2023-05-16T06:04:18;9.20;99.90
58339;DHT22;68636;52.704;6.536;2023-05-16T06:06:44;9.30;99.90
58339;DHT22;68636;52.704;6.536;2023-05-16T06:09:10;9.30;99.90
58339;DHT22;68636;52.704;6.536;2023-05-16T06:11:37;9.40;99.90
58339;DHT22;68636;52.704;6.536;2023-05-16T06:14:02;9.50;99.90
58339;DHT22;68636;52.704;6.536;2023-05-16T06:16:28;9.50;99.90
58339;DHT22;68636;52.704;6.536;2023-05-16T06:18:54;9.60;99.90
58339;DHT22;68636;52.704;6.536;2023-05-16T06:21:20;9.60;99.90
58339;DHT22;68636;52.704;6.536;2023-05-16T06:23:46;9.60;99.90
58339;DHT22;68636;52.704;6.536;2023-05-16T06:26:12;9.70;99.90
58339;DHT22;68636;52.704;6.536;2023-05-16T06:28:37;9.70;99.90
58339;DHT22;68636;52.704;6.536;2023-05-16T06:31:03;9.80;99.90
58339;DHT22;68636;52.704;6.536;2023-05-16T06:33:29;9.80;99.90
58339;DHT22;68636;52.704;6.536;2023-05-16T06:35:54;9.90;99.90
58339;DHT22;68636;52.704;6.536;2023-05-16T06:38:20;9.90;99.90
58339;DHT22;68636;52.704;6.536;2023-05-16T06:40:46;9.90;99.90
58339;DHT22;68636;52.704;6.536;2023-05-16T06:43:12;10.10;99.90
58339;DHT22;68636;52.704;6.536;2023-05-16T06:45:37;10.20;99.90
58339;DHT22;68636;52.704;6.536;2023-05-16T06:48:05;10.20;99.90
58339;DHT22;68636;52.704;6.536;2023-05-16T06:50:31;10.30;99.90
58339;DHT22;68636;52.704;6.536;2023-05-16T06:52:57;10.30;99.90
58339;DHT22;68636;52.704;6.536;2023-05-16T06:55:23;10.30;99.90
58339;DHT22;68636;52.704;6.536;2023-05-16T06:57:49;10.40;99.90
58339;DHT22;68636;52.704;6.536;2023-05-16T07:00:15;10.40;99.90
58339;DHT22;68636;52.704;6.536;2023-05-16T07:02:41;10.50;99.90
58339;DHT22;68636;52.704;6.536;2023-05-16T07:05:07;10.60;99.90
58339;DHT22;68636;52.704;6.536;2023-05-16T07:07:33;10.80;99.90
58339;DHT22;68636;52.704;6.536;2023-05-16T07:09:59;11.00;99.90
58339;DHT22;68636;52.704;6.536;2023-05-16T07:12:25;11.10;99.90
58339;DHT22;68636;52.704;6.536;2023-05-16T07:14:51;11.10;99.90
58339;DHT22;68636;52.704;6.536;2023-05-16T07:17:17;11.30;99.90
58339;DHT22;68636;52.704;6.536;2023-05-16T07:19:42;11.30;99.90
58339;DHT22;68636;52.704;6.536;2023-05-16T07:22:08;11.40;99.90
58339;DHT22;68636;52.704;6.536;2023-05-16T07:24:35;11.30;99.90
58339;DHT22;68636;52.704;6.536;2023-05-16T07:27:01;11.50;99.90
58339;DHT22;68636;52.704;6.536;2023-05-16T07:29:26;11.50;99.90
58339;DHT22;68636;52.704;6.536;2023-05-16T07:31:52;11.30;99.90
58339;DHT22;68636;52.704;6.536;2023-05-16T07:34:18;11.00;99.90
58339;DHT22;68636;52.704;6.536;2023-05-16T07:36:44;10.70;99.90
58339;DHT22;68636;52.704;6.536;2023-05-16T07:39:10;10.20;99.90
58339;DHT22;68636;52.704;6.536;2023-05-16T07:41:36;9.80;99.90
58339;DHT22;68636;52.704;6.536;2023-05-16T07:44:01;9.80;99.90
58339;DHT22;68636;52.704;6.536;2023-05-16T07:46:27;9.90;99.90
58339;DHT22;68636;52.704;6.536;2023-05-16T07:48:53;10.20;99.90
58339;DHT22;68636;52.704;6.536;2023-05-16T07:51:18;10.50;99.90
58339;DHT22;68636;52.704;6.536;2023-05-16T07:53:44;10.80;99.90
58339;DHT22;68636;52.704;6.536;2023-05-16T07:56:10;11.10;99.90
58339;DHT22;68636;52.704;6.536;2023-05-16T07:58:37;11.50;99.90
58339;DHT22;68636;52.704;6.536;2023-05-16T08:01:03;11.90;99.90
58339;DHT22;68636;52.704;6.536;2023-05-16T08:03:29;11.90;99.90
58339;DHT22;68636;52.704;6.536;2023-05-16T08:05:54;11.80;99.90
58339;DHT22;68636;52.704;6.536;2023-05-16T08:08:20;11.80;99.90
58339;DHT22;68636;52.704;6.536;2023-05-16T08:10:46;11.80;99.90
58339;DHT22;68636;52.704;6.536;2023-05-16T08:13:12;12.00;99.90
58339;DHT22;68636;52.704;6.536;2023-05-16T08:15:37;11.70;99.90
58339;DHT22;68636;52.704;6.536;2023-05-16T08:18:03;11.70;99.90
58339;DHT22;68636;52.704;6.536;2023-05-16T08:20:31;11.70;99.90
58339;DHT22;68636;52.704;6.536;2023-05-16T08:22:57;11.70;99.90
58339;DHT22;68636;52.704;6.536;2023-05-16T08:25:23;11.70;99.90
58339;DHT22;68636;52.704;6.536;2023-05-16T08:27:49;11.90;99.90
58339;DHT22;68636;52.704;6.536;2023-05-16T08:30:15;12.00;99.90
58339;DHT22;68636;52.704;6.536;2023-05-16T08:32:41;12.00;99.90
58339;DHT22;68636;52.704;6.536;2023-05-16T08:35:07;12.00;99.90
58339;DHT22;68636;52.704;6.536;2023-05-16T08:37:33;11.90;99.90
58339;DHT22;68636;52.704;6.536;2023-05-16T08:39:59;12.00;99.90
58339;DHT22;68636;52.704;6.536;2023-05-16T08:42:25;12.20;99.90
58339;DHT22;68636;52.704;6.536;2023-05-16T08:44:52;12.20;99.90
58339;DHT22;68636;52.704;6.536;2023-05-16T08:47:18;12.30;99.90
58339;DHT22;68636;52.704;6.536;2023-05-16T08:49:50;12.60;99.90
58339;DHT22;68636;52.704;6.536;2023-05-16T08:52:19;12.70;99.90
58339;DHT22;68636;52.704;6.536;2023-05-16T10:08:33;13.60;99.90
58339;DHT22;68636;52.704;6.536;2023-05-16T10:11:03;14.10;99.90
58339;DHT22;68636;52.704;6.536;2023-05-16T10:13:34;14.40;99.90
58339;DHT22;68636;52.704;6.536;2023-05-16T10:16:09;14.80;99.90
58339;DHT22;68636;52.704;6.536;2023-05-16T10:18:37;14.70;99.90
58339;DHT22;68636;52.704;6.536;2023-05-16T10:21:07;14.40;99.90
58339;DHT22;68636;52.704;6.536;2023-05-16T10:23:35;14.00;99.90
58339;DHT22;68636;52.704;6.536;2023-05-16T10:26:03;13.00;99.90
58339;DHT22;68636;52.704;6.536;2023-05-16T10:28:30;12.90;99.90
58339;DHT22;68636;52.704;6.536;2023-05-16T10:30:57;12.80;99.90
58339;DHT22;68636;52.704;6.536;2023-05-16T10:33:23;12.80;99.90
58339;DHT22;68636;52.704;6.536;2023-05-16T10:35:49;12.90;99.90
58339;DHT22;68636;52.704;6.536;2023-05-16T10:38:17;13.10;99.90
58339;DHT22;68636;52.704;6.536;2023-05-16T10:40:44;13.50;99.90
58339;DHT22;68636;52.704;6.536;2023-05-16T10:43:10;13.60;99.70
58339;DHT22;68636;52.704;6.536;2023-05-16T10:45:39;14.00;98.80
58339;DHT22;68636;52.704;6.536;2023-05-16T10:48:06;14.00;96.80
58339;DHT22;68636;52.704;6.536;2023-05-16T10:50:45;13.80;96.70
58339;DHT22;68636;52.704;6.536;2023-05-16T10:53:31;14.00;97.30
58339;DHT22;68636;52.704;6.536;2023-05-16T11:01:26;13.70;99.60
58339;DHT22;68636;52.704;6.536;2023-05-16T13:48:16;14.40;97.60
58339;DHT22;68636;52.704;6.536;2023-05-16T13:50:42;14.00;98.20
58339;DHT22;68636;52.704;6.536;2023-05-16T13:53:08;14.10;98.90
58339;DHT22;68636;52.704;6.536;2023-05-16T13:55:33;14.30;98.50
58339;DHT22;68636;52.704;6.536;2023-05-16T13:57:59;14.40;97.80
58339;DHT22;68636;52.704;6.536;2023-05-16T14:00:25;14.00;97.50
58339;DHT22;68636;52.704;6.536;2023-05-16T14:02:51;14.00;98.60
58339;DHT22;68636;52.704;6.536;2023-05-16T14:05:17;14.00;98.30
58339;DHT22;68636;52.704;6.536;2023-05-16T14:07:43;13.90;97.90
58339;DHT22;68636;52.704;6.536;2023-05-16T14:10:09;14.10;97.90
58339;DHT22;68636;52.704;6.536;2023-05-16T14:12:35;14.20;98.20
58339;DHT22;68636;52.704;6.536;2023-05-16T14:15:01;14.30;98.10
58339;DHT22;68636;52.704;6.536;2023-05-16T14:17:27;14.10;97.10
58339;DHT22;68636;52.704;6.536;2023-05-16T14:19:53;14.30;97.60
58339;DHT22;68636;52.704;6.536;2023-05-16T14:22:19;14.20;97.50
58339;DHT22;68636;52.704;6.536;2023-05-16T14:24:45;14.20;97.60
58339;DHT22;68636;52.704;6.536;2023-05-16T14:27:11;14.10;98.00
58339;DHT22;68636;52.704;6.536;2023-05-16T14:29:36;14.40;98.00
58339;DHT22;68636;52.704;6.536;2023-05-16T14:32:02;14.10;98.00
58339;DHT22;68636;52.704;6.536;2023-05-16T14:34:28;14.00;98.30
58339;DHT22;68636;52.704;6.536;2023-05-16T14:36:54;13.90;98.30
58339;DHT22;68636;52.704;6.536;2023-05-16T14:39:20;13.70;98.80
58339;DHT22;68636;52.704;6.536;2023-05-16T14:41:46;13.80;99.30
58339;DHT22;68636;52.704;6.536;2023-05-16T14:44:12;13.90;99.20
58339;DHT22;68636;52.704;6.536;2023-05-16T14:46:37;13.90;99.60
58339;DHT22;68636;52.704;6.536;2023-05-16T14:49:03;13.90;99.50
58339;DHT22;68636;52.704;6.536;2023-05-16T14:51:29;13.90;99.90
58339;DHT22;68636;52.704;6.536;2023-05-16T14:53:56;13.50;98.70
58339;DHT22;68636;52.704;6.536;2023-05-16T14:56:22;13.20;99.00
58339;DHT22;68636;52.704;6.536;2023-05-16T14:58:48;13.50;99.40
58339;DHT22;68636;52.704;6.536;2023-05-16T15:01:14;13.70;99.60
58339;DHT22;68636;52.704;6.536;2023-05-16T15:03:40;14.00;99.80
58339;DHT22;68636;52.704;6.536;2023-05-16T15:06:06;13.90;99.30
58339;DHT22;68636;52.704;6.536;2023-05-16T15:08:33;14.00;99.60
58339;DHT22;68636;52.704;6.536;2023-05-16T15:10:59;14.00;99.10
58339;DHT22;68636;52.704;6.536;2023-05-16T15:13:25;13.90;98.50
58339;DHT22;68636;52.704;6.536;2023-05-16T15:15:51;13.70;97.90
58339;DHT22;68636;52.704;6.536;2023-05-16T15:18:17;13.60;97.60
58339;DHT22;68636;52.704;6.536;2023-05-16T15:20:42;13.60;98.30
58339;DHT22;68636;52.704;6.536;2023-05-16T15:23:08;13.50;98.30
58339;DHT22;68636;52.704;6.536;2023-05-16T15:25:34;13.50;98.70
58339;DHT22;68636;52.704;6.536;2023-05-16T15:28:00;13.50;99.00
58339;DHT22;68636;52.704;6.536;2023-05-16T15:30:25;13.50;99.10
58339;DHT22;68636;52.704;6.536;2023-05-16T15:32:51;13.30;99.50
58339;DHT22;68636;52.704;6.536;2023-05-16T15:35:17;13.40;99.50
58339;DHT22;68636;52.704;6.536;2023-05-16T15:37:43;13.30;99.30
58339;DHT22;68636;52.704;6.536;2023-05-16T15:40:09;13.30;99.40
58339;DHT22;68636;52.704;6.536;2023-05-16T15:42:35;13.30;99.50
58339;DHT22;68636;52.704;6.536;2023-05-16T15:45:01;13.40;99.50
58339;DHT22;68636;52.704;6.536;2023-05-16T15:47:27;13.40;99.90
58339;DHT22;68636;52.704;6.536;2023-05-16T15:49:53;13.60;99.90
58339;DHT22;68636;52.704;6.536;2023-05-16T15:52:19;13.60;99.70
58339;DHT22;68636;52.704;6.536;2023-05-16T15:54:45;13.60;99.80
58339;DHT22;68636;52.704;6.536;2023-05-16T15:57:10;13.40;99.90
58339;DHT22;68636;52.704;6.536;2023-05-16T15:59:36;13.40;99.90
58339;DHT22;68636;52.704;6.536;2023-05-16T16:02:02;13.50;99.90
58339;DHT22;68636;52.704;6.536;2023-05-16T16:04:30;13.60;99.90
58339;DHT22;68636;52.704;6.536;2023-05-16T16:06:56;13.70;99.90
58339;DHT22;68636;52.704;6.536;2023-05-16T16:09:22;13.70;99.90
58339;DHT22;68636;52.704;6.536;2023-05-16T16:11:48;13.60;99.60
58339;DHT22;68636;52.704;6.536;2023-05-16T16:14:14;13.30;99.80
58339;DHT22;68636;52.704;6.536;2023-05-16T16:16:40;13.20;99.90
58339;DHT22;68636;52.704;6.536;2023-05-16T16:19:06;13.30;99.90
58339;DHT22;68636;52.704;6.536;2023-05-16T16:21:32;13.40;99.90
58339;DHT22;68636;52.704;6.536;2023-05-16T16:23:58;13.40;99.90
58339;DHT22;68636;52.704;6.536;2023-05-16T16:26:24;13.40;99.90
58339;DHT22;68636;52.704;6.536;2023-05-16T16:28:50;13.30;99.90
58339;DHT22;68636;52.704;6.536;2023-05-16T16:31:16;13.30;99.90
58339;DHT22;68636;52.704;6.536;2023-05-16T16:33:42;13.20;99.90
58339;DHT22;68636;52.704;6.536;2023-05-16T16:36:08;13.30;99.90
58339;DHT22;68636;52.704;6.536;2023-05-16T16:38:34;13.20;99.90
58339;DHT22;68636;52.704;6.536;2023-05-16T16:41:00;13.10;99.70
58339;DHT22;68636;52.704;6.536;2023-05-16T16:43:25;12.80;99.90
58339;DHT22;68636;52.704;6.536;2023-05-16T16:45:51;12.90;99.90
58339;DHT22;68636;52.704;6.536;2023-05-16T16:48:17;12.70;99.90
58339;DHT22;68636;52.704;6.536;2023-05-16T16:50:43;12.80;99.90
58339;DHT22;68636;52.704;6.536;2023-05-16T16:53:09;12.40;99.90
58339;DHT22;68636;52.704;6.536;2023-05-16T16:55:35;12.20;99.90
58339;DHT22;68636;52.704;6.536;2023-05-16T16:58:02;12.20;99.90
58339;DHT22;68636;52.704;6.536;2023-05-16T17:00:28;12.20;99.90
58339;DHT22;68636;52.704;6.536;2023-05-16T17:02:54;12.30;99.90
58339;DHT22;68636;52.704;6.536;2023-05-16T17:05:20;12.50;99.90
58339;DHT22;68636;52.704;6.536;2023-05-16T17:07:46;12.50;99.90
58339;DHT22;68636;52.704;6.536;2023-05-16T17:10:12;12.40;99.90
58339;DHT22;68636;52.704;6.536;2023-05-16T17:12:38;12.50;99.90
58339;DHT22;68636;52.704;6.536;2023-05-16T17:15:11;12.40;99.90
58339;DHT22;68636;52.704;6.536;2023-05-16T17:17:37;12.40;99.90
58339;DHT22;68636;52.704;6.536;2023-05-16T17:20:03;12.40;99.90
58339;DHT22;68636;52.704;6.536;2023-05-16T17:22:31;12.50;99.90
58339;DHT22;68636;52.704;6.536;2023-05-16T17:24:58;12.50;99.90
58339;DHT22;68636;52.704;6.536;2023-05-16T17:27:24;12.50;99.90
58339;DHT22;68636;52.704;6.536;2023-05-16T17:29:49;12.50;99.90
58339;DHT22;68636;52.704;6.536;2023-05-16T17:32:15;12.50;99.90
58339;DHT22;68636;52.704;6.536;2023-05-16T17:34:43;12.50;99.90
58339;DHT22;68636;52.704;6.536;2023-05-16T17:37:09;12.50;99.90
58339;DHT22;68636;52.704;6.536;2023-05-16T17:39:35;12.50;99.90
58339;DHT22;68636;52.704;6.536;2023-05-16T17:42:02;12.40;99.90
58339;DHT22;68636;52.704;6.536;2023-05-16T17:44:30;12.40;99.90
58339;DHT22;68636;52.704;6.536;2023-05-16T17:46:56;12.40;99.90
58339;DHT22;68636;52.704;6.536;2023-05-16T17:49:22;12.50;99.90
58339;DHT22;68636;52.704;6.536;2023-05-16T17:51:52;12.60;99.90
58339;DHT22;68636;52.704;6.536;2023-05-16T17:54:20;12.60;99.90
58339;DHT22;68636;52.704;6.536;2023-05-16T17:56:47;12.60;99.90
58339;DHT22;68636;52.704;6.536;2023-05-16T17:59:13;12.60;99.90
58339;DHT22;68636;52.704;6.536;2023-05-16T18:01:40;12.60;99.90
58339;DHT22;68636;52.704;6.536;2023-05-16T18:04:07;12.60;99.90
58339;DHT22;68636;52.704;6.536;2023-05-16T18:06:33;12.50;99.90
58339;DHT22;68636;52.704;6.536;2023-05-16T18:09:00;12.50;99.90
58339;DHT22;68636;52.704;6.536;2023-05-16T18:11:26;12.50;99.90
58339;DHT22;68636;52.704;6.536;2023-05-16T18:13:52;12.50;99.90
58339;DHT22;68636;52.704;6.536;2023-05-16T18:16:18;12.50;99.90
58339;DHT22;68636;52.704;6.536;2023-05-16T18:18:45;12.30;99.90
58339;DHT22;68636;52.704;6.536;2023-05-16T18:21:10;12.30;99.90
58339;DHT22;68636;52.704;6.536;2023-05-16T18:23:36;12.30;99.90
58339;DHT22;68636;52.704;6.536;2023-05-16T18:26:02;12.40;99.90
58339;DHT22;68636;52.704;6.536;2023-05-16T18:28:28;12.30;99.90
58339;DHT22;68636;52.704;6.536;2023-05-16T18:30:54;12.40;99.90
58339;DHT22;68636;52.704;6.536;2023-05-16T18:33:20;12.40;99.90
58339;DHT22;68636;52.704;6.536;2023-05-16T18:35:46;12.40;99.90
58339;DHT22;68636;52.704;6.536;2023-05-16T18:38:12;12.30;99.90
58339;DHT22;68636;52.704;6.536;2023-05-16T18:40:38;12.30;99.90
58339;DHT22;68636;52.704;6.536;2023-05-16T18:43:04;12.30;99.90
58339;DHT22;68636;52.704;6.536;2023-05-16T18:45:30;12.20;99.90
58339;DHT22;68636;52.704;6.536;2023-05-16T18:47:56;12.10;99.90
58339;DHT22;68636;52.704;6.536;2023-05-16T18:50:22;12.10;99.90
58339;DHT22;68636;52.704;6.536;2023-05-16T18:52:48;12.10;99.90
58339;DHT22;68636;52.704;6.536;2023-05-16T18:55:14;12.00;99.90
58339;DHT22;68636;52.704;6.536;2023-05-16T18:57:42;12.00;99.90
58339;DHT22;68636;52.704;6.536;2023-05-16T19:00:10;12.00;99.90
58339;DHT22;68636;52.704;6.536;2023-05-16T19:02:36;12.00;99.90
58339;DHT22;68636;52.704;6.536;2023-05-16T19:05:02;12.00;99.90
58339;DHT22;68636;52.704;6.536;2023-05-16T19:07:28;12.00;99.90
58339;DHT22;68636;52.704;6.536;2023-05-16T19:09:54;11.90;99.90
58339;DHT22;68636;52.704;6.536;2023-05-16T19:12:20;11.90;99.90
58339;DHT22;68636;52.704;6.536;2023-05-16T19:14:46;11.90;99.90
58339;DHT22;68636;52.704;6.536;2023-05-16T19:17:13;11.80;99.90
58339;DHT22;68636;52.704;6.536;2023-05-16T19:19:38;11.80;99.90
58339;DHT22;68636;52.704;6.536;2023-05-16T19:22:04;11.80;99.90
58339;DHT22;68636;52.704;6.536;2023-05-16T19:24:31;11.80;99.90
58339;DHT22;68636;52.704;6.536;2023-05-16T19:26:57;11.80;99.90
58339;DHT22;68636;52.704;6.536;2023-05-16T19:29:23;11.80;99.90
58339;DHT22;68636;52.704;6.536;2023-05-16T19:31:48;11.80;99.90
58339;DHT22;68636;52.704;6.536;2023-05-16T19:34:14;11.70;99.90
58339;DHT22;68636;52.704;6.536;2023-05-16T19:36:40;11.70;99.90
58339;DHT22;68636;52.704;6.536;2023-05-16T19:39:06;11.60;99.90
58339;DHT22;68636;52.704;6.536;2023-05-16T19:41:32;11.60;99.90
58339;DHT22;68636;52.704;6.536;2023-05-16T19:43:58;11.50;99.90